Time;durP1;ratioP1;P1;durP2;ratioP2;P2;SDS_P1;SDS_P2;PMS_P1;PMS_P2;Temp;Humidity;BMP_temperature;BMP_pressure;BME280_temperature;BME280_humidity;BME280_pressure;Samples;Min_cycle;Max_cycle;Signal;HPM_P1;HPM_P2
2021/08/31 00:00:43;;;;;;;15.97;14.40;;;18.40;99.90;;;;;;5041033;28;20499;-67
2021/08/31 00:03:09;;;;;;;16.40;14.90;;;18.40;99.90;;;;;;5042047;28;20176;-68
2021/08/31 00:05:35;;;;;;;14.57;13.00;;;18.30;99.90;;;;;;5040223;28;20214;-68
2021/08/31 00:08:00;;;;;;;15.53;14.03;;;18.30;99.90;;;;;;5039411;28;20178;-68
2021/08/31 00:10:26;;;;;;;16.17;14.47;;;18.30;99.90;;;;;;5042872;28;20174;-68
2021/08/31 00:12:52;;;;;;;15.23;13.93;;;18.20;99.90;;;;;;5040145;28;20187;-68
2021/08/31 00:15:18;;;;;;;14.40;13.10;;;18.20;99.90;;;;;;5040498;28;20209;-68
2021/08/31 00:17:43;;;;;;;15.23;13.73;;;18.10;99.90;;;;;;5041538;28;20182;-68
2021/08/31 00:20:10;;;;;;;14.97;13.50;;;18.20;99.90;;;;;;5045851;28;20412;-68
2021/08/31 00:22:37;;;;;;;14.60;13.20;;;18.20;99.90;;;;;;5038398;28;20213;-68
2021/08/31 00:25:05;;;;;;;15.50;14.07;;;18.20;99.90;;;;;;5032132;28;20410;-66
2021/08/31 00:27:31;;;;;;;15.43;13.87;;;18.10;99.90;;;;;;5032693;28;21040;-66
2021/08/31 00:29:57;;;;;;;14.03;12.53;;;18.10;99.90;;;;;;5037903;28;20487;-66
2021/08/31 00:32:23;;;;;;;16.03;14.43;;;18.20;99.90;;;;;;5040603;28;20192;-68
2021/08/31 00:34:49;;;;;;;15.17;13.67;;;18.20;99.90;;;;;;5041723;28;20449;-66
2021/08/31 00:37:14;;;;;;;17.77;14.80;;;18.20;99.90;;;;;;5039241;28;20174;-66
2021/08/31 00:39:40;;;;;;;15.93;14.43;;;18.20;99.90;;;;;;5041610;28;20630;-66
2021/08/31 00:42:06;;;;;;;16.60;14.67;;;18.20;99.90;;;;;;5039966;28;20178;-66
2021/08/31 00:44:32;;;;;;;15.30;13.80;;;18.20;99.90;;;;;;5035160;28;20178;-66
2021/08/31 00:47:05;;;;;;;16.20;14.70;;;18.20;99.90;;;;;;5034463;28;20196;-72
2021/08/31 00:49:31;;;;;;;17.33;15.20;;;18.20;99.90;;;;;;5043693;28;20526;-67
2021/08/31 00:51:58;;;;;;;15.17;13.77;;;18.10;99.90;;;;;;5052174;28;20412;-66
2021/08/31 00:54:25;;;;;;;15.60;14.10;;;18.10;99.90;;;;;;5052267;28;20462;-66
2021/08/31 00:56:52;;;;;;;15.37;13.93;;;18.20;99.90;;;;;;5052365;28;20408;-66
2021/08/31 00:59:20;;;;;;;15.10;13.70;;;18.20;99.90;;;;;;5050925;28;20427;-66
2021/08/31 01:01:50;;;;;;;15.73;14.13;;;18.20;99.90;;;;;;5052385;28;20419;-66
2021/08/31 01:04:17;;;;;;;19.70;16.00;;;18.20;99.90;;;;;;5051711;28;20412;-66
2021/08/31 01:06:43;;;;;;;18.10;16.30;;;18.20;99.90;;;;;;5052217;28;20405;-66
2021/08/31 01:09:09;;;;;;;17.10;15.50;;;18.20;99.90;;;;;;5051010;28;20419;-66
2021/08/31 01:11:36;;;;;;;17.67;15.87;;;18.20;99.90;;;;;;5052148;28;20194;-66
2021/08/31 01:14:02;;;;;;;18.40;16.57;;;18.20;99.90;;;;;;5051185;28;20513;-66
2021/08/31 01:16:28;;;;;;;17.40;15.73;;;18.20;99.90;;;;;;5039796;28;20445;-67
2021/08/31 01:18:53;;;;;;;16.67;15.17;;;18.20;99.90;;;;;;5051494;28;20458;-66
2021/08/31 01:21:19;;;;;;;17.13;15.63;;;18.20;99.90;;;;;;5051536;28;20433;-66
2021/08/31 01:23:46;;;;;;;17.70;16.10;;;18.20;99.90;;;;;;5050743;28;20185;-67
2021/08/31 01:26:12;;;;;;;16.67;15.00;;;18.20;99.90;;;;;;5050710;28;20200;-66
2021/08/31 01:28:38;;;;;;;18.77;16.57;;;18.20;99.90;;;;;;5051983;28;20824;-66
2021/08/31 01:31:04;;;;;;;18.33;16.60;;;18.20;99.90;;;;;;5051096;28;20428;-67
2021/08/31 01:33:32;;;;;;;18.87;16.93;;;18.30;99.90;;;;;;5040111;28;20217;-66
2021/08/31 01:36:20;;;;;;;19.33;17.43;;;18.30;99.90;;;;;;5031718;28;20767;-66
2021/08/31 01:38:46;;;;;;;19.50;17.60;;;18.30;99.90;;;;;;5034554;28;20456;-66
2021/08/31 01:41:11;;;;;;;19.80;16.90;;;18.30;99.90;;;;;;5035142;28;20437;-66
2021/08/31 01:43:37;;;;;;;19.23;16.90;;;18.30;99.90;;;;;;5046478;28;20428;-66
2021/08/31 01:46:03;;;;;;;21.13;16.03;;;18.30;99.90;;;;;;5054921;28;20211;-67
2021/08/31 01:48:29;;;;;;;18.03;16.23;;;18.30;99.90;;;;;;5055323;28;20635;-66
2021/08/31 01:50:55;;;;;;;19.40;17.47;;;18.30;99.90;;;;;;5055445;28;20503;-66
2021/08/31 01:53:21;;;;;;;20.03;17.97;;;18.40;99.90;;;;;;5054234;28;20174;-66
2021/08/31 01:55:46;;;;;;;19.23;17.23;;;18.30;99.90;;;;;;5055314;28;20404;-66
2021/08/31 01:58:12;;;;;;;19.27;17.50;;;18.30;99.90;;;;;;5054771;28;20736;-66
2021/08/31 02:00:38;;;;;;;18.10;16.20;;;18.30;99.90;;;;;;5044631;28;20174;-66
2021/08/31 02:03:04;;;;;;;21.73;19.10;;;18.30;99.90;;;;;;5034772;28;20201;-66
2021/08/31 02:05:30;;;;;;;20.40;18.30;;;18.30;99.90;;;;;;5035238;28;20182;-66
2021/08/31 02:07:56;;;;;;;19.63;17.83;;;18.30;99.90;;;;;;5035465;28;20409;-66
2021/08/31 02:10:22;;;;;;;20.40;18.37;;;18.40;99.90;;;;;;5034778;28;20425;-66
2021/08/31 02:12:47;;;;;;;24.23;20.13;;;18.40;99.90;;;;;;5017536;28;20170;-66
2021/08/31 02:15:13;;;;;;;22.67;20.37;;;18.40;99.90;;;;;;5034028;28;20518;-66
2021/08/31 02:17:39;;;;;;;21.90;19.57;;;18.40;99.90;;;;;;5035024;28;20185;-66
2021/08/31 02:20:07;;;;;;;22.90;20.70;;;18.40;99.90;;;;;;5034371;28;20504;-67
2021/08/31 02:22:33;;;;;;;25.40;22.80;;;18.40;99.90;;;;;;5035173;28;20508;-66
2021/08/31 02:24:58;;;;;;;22.87;20.67;;;18.40;99.90;;;;;;5034569;28;20445;-66
2021/08/31 02:27:24;;;;;;;23.27;21.03;;;18.40;99.90;;;;;;5034331;28;20236;-66
2021/08/31 02:29:50;;;;;;;24.70;22.23;;;18.40;99.90;;;;;;5045611;28;20174;-66
2021/08/31 02:32:15;;;;;;;24.63;22.20;;;18.40;99.90;;;;;;5054043;28;20232;-66
2021/08/31 02:34:41;;;;;;;22.67;20.57;;;18.40;99.90;;;;;;5054533;28;20213;-66
2021/08/31 02:37:07;;;;;;;24.90;22.40;;;18.30;99.90;;;;;;5053996;28;20280;-67
2021/08/31 02:39:33;;;;;;;23.50;21.10;;;18.30;99.90;;;;;;5054388;28;20231;-66
2021/08/31 02:41:59;;;;;;;27.03;24.03;;;18.30;99.90;;;;;;5056484;28;20257;-66
2021/08/31 02:44:25;;;;;;;26.97;24.27;;;18.30;99.90;;;;;;5053951;28;20789;-66
2021/08/31 02:46:50;;;;;;;27.73;24.83;;;18.30;99.90;;;;;;5054495;28;20212;-66
2021/08/31 02:49:16;;;;;;;31.70;28.30;;;18.30;99.90;;;;;;5052393;28;20225;-66
2021/08/31 02:51:42;;;;;;;32.50;28.83;;;18.30;99.90;;;;;;5053652;28;20191;-66
2021/08/31 02:54:07;;;;;;;33.07;28.93;;;18.30;99.90;;;;;;5053554;28;20292;-67
2021/08/31 02:56:33;;;;;;;35.90;29.50;;;18.30;99.90;;;;;;5054146;28;20170;-66
2021/08/31 02:58:59;;;;;;;34.60;29.20;;;18.30;99.90;;;;;;5053592;28;20185;-66
2021/08/31 03:03:53;;;;;;;34.07;27.70;;;18.30;99.90;;;;;;5054040;28;20283;-66
2021/08/31 03:06:19;;;;;;;32.20;28.70;;;18.30;99.90;;;;;;5053368;28;20491;-66
2021/08/31 03:08:45;;;;;;;36.07;29.60;;;18.40;99.90;;;;;;5043428;28;20258;-66
2021/08/31 03:11:10;;;;;;;33.10;29.47;;;18.40;99.90;;;;;;5033379;28;20190;-66
2021/08/31 03:13:36;;;;;;;28.73;25.07;;;18.40;99.90;;;;;;5033667;28;20220;-66
2021/08/31 03:16:02;;;;;;;33.30;28.43;;;18.40;99.90;;;;;;5033603;28;20619;-66
2021/08/31 03:18:28;;;;;;;35.03;30.10;;;18.40;99.90;;;;;;5033252;28;20523;-65
2021/08/31 03:20:53;;;;;;;34.90;29.17;;;18.40;99.90;;;;;;5033710;28;20227;-66
2021/08/31 03:23:19;;;;;;;31.23;27.07;;;18.40;99.90;;;;;;5033210;28;20217;-66
2021/08/31 03:25:45;;;;;;;35.70;30.63;;;18.40;99.90;;;;;;5034113;28;20175;-66
2021/08/31 03:28:11;;;;;;;37.13;31.00;;;18.30;99.90;;;;;;5044038;28;20181;-66
2021/08/31 03:30:37;;;;;;;39.60;31.30;;;18.30;99.90;;;;;;5053479;28;20463;-66
2021/08/31 03:33:03;;;;;;;39.03;31.37;;;18.40;99.90;;;;;;5053473;28;20185;-66
2021/08/31 03:35:29;;;;;;;37.87;30.23;;;18.30;99.90;;;;;;5052725;28;20456;-66
2021/08/31 03:37:54;;;;;;;33.63;27.93;;;18.30;99.90;;;;;;5044235;28;20178;-66
2021/08/31 03:40:20;;;;;;;33.87;29.03;;;18.30;99.90;;;;;;5034710;28;20182;-66
2021/08/31 03:42:47;;;;;;;33.50;27.50;;;18.30;99.90;;;;;;5034410;28;20254;-66
2021/08/31 03:45:13;;;;;;;35.70;29.13;;;18.30;99.90;;;;;;5032176;28;20186;-66
2021/08/31 03:47:39;;;;;;;38.83;30.23;;;18.30;99.90;;;;;;5033057;28;20442;-66
2021/08/31 03:50:05;;;;;;;37.23;28.63;;;18.30;99.90;;;;;;5041731;28;20443;-66
2021/08/31 03:52:31;;;;;;;37.37;29.20;;;18.30;99.90;;;;;;5052573;28;20438;-66
2021/08/31 03:54:57;;;;;;;35.40;29.90;;;18.30;99.90;;;;;;5053100;28;20460;-66
2021/08/31 03:57:23;;;;;;;42.87;30.87;;;18.30;99.90;;;;;;5052534;28;20335;-66
2021/08/31 03:59:48;;;;;;;43.17;30.67;;;18.30;99.90;;;;;;5052760;28;20166;-66
2021/08/31 04:02:15;;;;;;;41.90;30.50;;;18.30;99.90;;;;;;5051638;28;20177;-66
2021/08/31 04:04:41;;;;;;;40.20;28.00;;;18.30;99.90;;;;;;5052662;28;20227;-66
2021/08/31 04:07:07;;;;;;;41.97;28.97;;;18.30;99.90;;;;;;5052589;28;20764;-66
2021/08/31 04:09:32;;;;;;;40.63;27.87;;;18.30;99.90;;;;;;5052278;28;20514;-66
2021/08/31 04:11:58;;;;;;;38.33;28.07;;;18.30;99.90;;;;;;5052754;28;20488;-66
2021/08/31 04:14:24;;;;;;;38.30;28.80;;;18.30;99.90;;;;;;5052206;28;20202;-66
2021/08/31 04:16:50;;;;;;;41.87;29.60;;;18.30;99.90;;;;;;5039600;28;20518;-66
2021/08/31 04:19:15;;;;;;;37.50;27.90;;;18.30;99.90;;;;;;5032239;28;20182;-66
2021/08/31 04:21:41;;;;;;;40.87;27.00;;;18.30;99.90;;;;;;5032920;28;20218;-66
2021/08/31 04:24:07;;;;;;;48.50;30.87;;;18.30;99.90;;;;;;5032774;28;20658;-66
2021/08/31 04:26:33;;;;;;;40.73;27.10;;;18.30;99.90;;;;;;5017890;28;20221;-66
2021/08/31 04:28:59;;;;;;;44.97;29.23;;;18.30;99.90;;;;;;5032656;28;20397;-66
2021/08/31 04:31:25;;;;;;;47.03;30.20;;;18.30;99.90;;;;;;5032402;28;20674;-66
2021/08/31 04:33:51;;;;;;;40.47;29.73;;;18.30;99.90;;;;;;5031855;28;20465;-66
2021/08/31 04:36:18;;;;;;;46.43;31.60;;;18.30;99.90;;;;;;5031511;28;20416;-67
2021/08/31 04:38:44;;;;;;;45.57;30.73;;;18.40;99.90;;;;;;5032731;28;20416;-66
2021/08/31 04:41:10;;;;;;;50.03;31.83;;;18.40;99.90;;;;;;5035069;28;20436;-66
2021/08/31 04:43:37;;;;;;;44.70;30.17;;;18.40;99.90;;;;;;5049300;28;20173;-66
2021/08/31 04:46:03;;;;;;;48.00;30.60;;;18.40;99.90;;;;;;5027383;28;20459;-66
2021/08/31 04:48:28;;;;;;;46.33;29.83;;;18.40;99.90;;;;;;5031124;28;20522;-66
2021/08/31 04:50:54;;;;;;;43.70;30.87;;;18.50;99.90;;;;;;5036834;28;20529;-66
2021/08/31 04:53:20;;;;;;;43.80;31.40;;;18.50;99.90;;;;;;5043468;28;20186;-66
2021/08/31 04:55:47;;;;;;;47.17;29.03;;;18.40;99.90;;;;;;5032438;28;20972;-66
2021/08/31 04:58:12;;;;;;;42.27;28.53;;;18.50;99.90;;;;;;5032111;28;20412;-73
2021/08/31 05:00:38;;;;;;;46.93;30.40;;;18.50;99.90;;;;;;5036181;28;20424;-66
2021/08/31 05:03:04;;;;;;;48.00;31.13;;;18.50;99.90;;;;;;5032395;28;20257;-66
2021/08/31 05:05:30;;;;;;;48.77;32.90;;;18.50;99.90;;;;;;5014297;28;20512;-66
2021/08/31 05:07:56;;;;;;;48.80;31.30;;;18.50;99.90;;;;;;5032424;28;20417;-66
2021/08/31 05:10:22;;;;;;;44.73;31.60;;;18.40;99.90;;;;;;5043813;28;20597;-69
2021/08/31 05:12:47;;;;;;;43.83;30.40;;;18.40;99.90;;;;;;5037842;28;20182;-67
2021/08/31 05:15:13;;;;;;;50.30;32.67;;;18.50;99.90;;;;;;5037246;28;20213;-74
2021/08/31 05:17:40;;;;;;;44.83;30.37;;;18.40;99.90;;;;;;5046561;28;20179;-68
2021/08/31 05:20:06;;;;;;;52.27;31.53;;;18.40;99.90;;;;;;5044529;28;20427;-68
2021/08/31 05:22:32;;;;;;;51.33;30.73;;;18.40;99.90;;;;;;5042794;28;20478;-68
2021/08/31 05:25:00;;;;;;;50.10;32.20;;;18.30;99.90;;;;;;5055300;28;20408;-68
2021/08/31 05:27:27;;;;;;;44.03;29.53;;;18.30;99.90;;;;;;5016813;28;20178;-67
2021/08/31 05:29:52;;;;;;;50.97;28.77;;;18.30;99.90;;;;;;5038422;28;20559;-68
2021/08/31 05:32:19;;;;;;;53.23;30.90;;;18.30;99.90;;;;;;5050003;28;20492;-69
2021/08/31 05:34:45;;;;;;;42.77;28.23;;;18.30;99.90;;;;;;5055209;28;20597;-67
2021/08/31 05:37:11;;;;;;;53.00;30.83;;;18.30;99.90;;;;;;5038861;28;20413;-67
2021/08/31 05:39:37;;;;;;;59.83;33.10;;;18.20;99.90;;;;;;5046997;28;20183;-68
2021/08/31 05:42:04;;;;;;;53.00;30.53;;;18.20;99.90;;;;;;5039524;28;20423;-68
2021/08/31 05:44:31;;;;;;;57.27;33.00;;;18.20;99.90;;;;;;5042651;28;20186;-68
2021/08/31 05:46:56;;;;;;;62.57;33.97;;;18.20;99.90;;;;;;5045123;28;20412;-68
2021/08/31 05:49:23;;;;;;;53.70;31.10;;;18.20;99.90;;;;;;5041531;28;20807;-68
2021/08/31 05:51:49;;;;;;;65.80;34.87;;;18.20;99.90;;;;;;5044214;28;20171;-69
2021/08/31 05:54:14;;;;;;;56.93;34.63;;;18.20;99.90;;;;;;5055065;28;20455;-72
2021/08/31 05:56:40;;;;;;;54.57;33.13;;;18.30;99.90;;;;;;5038641;28;20448;-68
2021/08/31 05:59:06;;;;;;;59.13;32.90;;;18.30;99.90;;;;;;5041236;28;20622;-69
2021/08/31 06:01:33;;;;;;;54.47;33.30;;;18.30;99.90;;;;;;5047764;28;20412;-68
2021/08/31 06:03:59;;;;;;;53.70;32.17;;;18.30;99.90;;;;;;5046722;28;20281;-67
2021/08/31 06:06:24;;;;;;;50.67;30.20;;;18.30;99.90;;;;;;5043430;28;21175;-68
2021/08/31 06:08:50;;;;;;;47.10;30.03;;;18.30;99.90;;;;;;5053011;28;20181;-67
2021/08/31 06:11:18;;;;;;;46.23;27.83;;;18.30;99.90;;;;;;5053353;28;20200;-71
2021/08/31 06:13:44;;;;;;;46.73;29.73;;;18.30;99.90;;;;;;5054979;28;20526;-67
2021/08/31 06:16:10;;;;;;;38.20;27.80;;;18.30;99.90;;;;;;5054254;28;20427;-67
2021/08/31 06:18:35;;;;;;;42.40;29.00;;;18.30;99.90;;;;;;5054399;28;20353;-67
2021/08/31 06:21:01;;;;;;;40.00;27.53;;;18.30;99.90;;;;;;5045754;28;20515;-67
2021/08/31 06:23:28;;;;;;;35.07;25.90;;;18.30;99.90;;;;;;5046238;28;20178;-66
2021/08/31 06:25:53;;;;;;;36.10;27.17;;;18.30;99.90;;;;;;5039664;28;20260;-65
2021/08/31 06:28:19;;;;;;;35.57;28.50;;;18.30;99.90;;;;;;5045376;28;20792;-66
2021/08/31 06:30:45;;;;;;;33.83;26.73;;;18.30;99.90;;;;;;5028390;28;20496;-65
2021/08/31 06:33:10;;;;;;;34.70;26.30;;;18.30;99.90;;;;;;5048811;28;20192;-65
2021/08/31 06:35:36;;;;;;;29.93;23.37;;;18.20;99.90;;;;;;5054068;28;20572;-65
2021/08/31 06:38:02;;;;;;;28.93;25.10;;;18.20;99.90;;;;;;5054915;28;20618;-65
2021/08/31 06:40:28;;;;;;;30.67;23.33;;;18.20;99.90;;;;;;5046106;28;20169;-65
2021/08/31 06:42:53;;;;;;;29.03;22.80;;;18.20;99.90;;;;;;5039384;28;20175;-65
2021/08/31 06:45:20;;;;;;;24.70;21.53;;;18.20;99.90;;;;;;5033534;28;20190;-66
2021/08/31 06:47:45;;;;;;;28.63;24.20;;;18.20;99.90;;;;;;5034544;28;20216;-68
2021/08/31 06:50:15;;;;;;;28.03;24.00;;;18.20;99.90;;;;;;5033707;28;20437;-67
2021/08/31 06:52:42;;;;;;;30.77;23.23;;;18.20;99.90;;;;;;5033623;28;20531;-65
2021/08/31 06:55:08;;;;;;;28.13;23.57;;;18.20;99.90;;;;;;5034205;28;20459;-66
2021/08/31 06:57:35;;;;;;;30.10;23.60;;;18.20;99.90;;;;;;5034995;28;20413;-66
2021/08/31 07:00:00;;;;;;;24.30;20.37;;;18.20;99.90;;;;;;5053084;28;20408;-68
2021/08/31 07:02:26;;;;;;;23.40;19.93;;;18.10;99.90;;;;;;5053560;28;20745;-70
2021/08/31 07:04:53;;;;;;;24.47;21.07;;;18.10;99.90;;;;;;5053207;28;20181;-70
2021/08/31 07:07:19;;;;;;;22.57;19.13;;;18.10;99.90;;;;;;5053670;28;20200;-76
2021/08/31 07:09:44;;;;;;;31.67;21.47;;;18.10;99.90;;;;;;5053263;28;20424;-68
2021/08/31 07:12:12;;;;;;;24.63;19.43;;;18.10;99.90;;;;;;5043730;28;20428;-67
2021/08/31 07:14:38;;;;;;;23.17;19.90;;;18.10;99.90;;;;;;5034065;28;20578;-69
2021/08/31 07:17:04;;;;;;;26.07;19.70;;;18.20;99.90;;;;;;5052137;28;20452;-68
2021/08/31 07:19:30;;;;;;;22.63;19.90;;;18.20;99.90;;;;;;5041416;28;20423;-68
2021/08/31 07:21:56;;;;;;;22.40;19.23;;;18.20;99.90;;;;;;5053275;28;20567;-69
2021/08/31 07:24:22;;;;;;;22.53;18.40;;;18.20;99.90;;;;;;5042623;28;20550;-66
2021/08/31 07:26:48;;;;;;;24.40;18.87;;;18.20;99.90;;;;;;5046112;28;20412;-66
2021/08/31 07:29:14;;;;;;;25.30;20.87;;;18.20;99.90;;;;;;5046938;28;20417;-67
2021/08/31 07:31:40;;;;;;;29.33;22.40;;;18.10;99.90;;;;;;5042494;28;20508;-66
2021/08/31 07:34:06;;;;;;;27.33;20.90;;;18.10;99.90;;;;;;5042046;28;21040;-67
2021/08/31 07:36:32;;;;;;;27.90;19.93;;;18.00;99.90;;;;;;5039106;28;20246;-67
2021/08/31 07:38:58;;;;;;;27.53;21.60;;;18.00;99.90;;;;;;5042113;28;20178;-67
2021/08/31 07:41:24;;;;;;;27.23;20.87;;;17.90;99.90;;;;;;5043964;28;20471;-67
2021/08/31 07:43:51;;;;;;;31.33;21.50;;;17.90;99.90;;;;;;5041854;28;20775;-67
2021/08/31 07:46:17;;;;;;;27.10;20.67;;;17.90;99.90;;;;;;5028791;28;20977;-67
2021/08/31 07:48:43;;;;;;;29.43;21.80;;;17.90;99.90;;;;;;5037491;28;20491;-67
2021/08/31 07:51:09;;;;;;;27.87;22.17;;;17.80;99.90;;;;;;5050562;28;20463;-67
2021/08/31 07:53:35;;;;;;;30.23;21.40;;;17.80;99.90;;;;;;5042546;28;20178;-66
2021/08/31 07:56:01;;;;;;;26.00;21.27;;;17.80;99.90;;;;;;5052251;28;20466;-67
2021/08/31 07:58:27;;;;;;;26.07;20.60;;;17.80;99.90;;;;;;5052294;28;20396;-67
2021/08/31 08:00:53;;;;;;;22.80;18.60;;;17.70;99.90;;;;;;5051264;28;20423;-67
2021/08/31 08:03:19;;;;;;;23.63;18.83;;;17.70;99.90;;;;;;5049563;28;20554;-69
2021/08/31 08:05:45;;;;;;;20.30;15.87;;;17.70;99.90;;;;;;5036558;28;20432;-68
2021/08/31 08:08:10;;;;;;;20.83;16.30;;;17.70;99.90;;;;;;5052780;28;20244;-68
2021/08/31 08:10:36;;;;;;;18.20;14.80;;;17.70;99.90;;;;;;5049870;28;20181;-68
2021/08/31 08:13:02;;;;;;;20.57;14.00;;;17.70;99.90;;;;;;5048524;28;20181;-69
2021/08/31 08:15:27;;;;;;;16.30;14.60;;;17.70;99.90;;;;;;5051703;28;20593;-69
2021/08/31 08:17:53;;;;;;;17.20;14.47;;;17.70;99.90;;;;;;5051726;28;20597;-68
2021/08/31 08:20:19;;;;;;;16.47;12.70;;;17.70;99.90;;;;;;5046588;28;20187;-68
2021/08/31 08:22:45;;;;;;;14.60;12.60;;;17.80;99.90;;;;;;5051412;28;20273;-67
2021/08/31 08:25:12;;;;;;;13.00;11.43;;;17.80;99.90;;;;;;5051600;28;20416;-67
2021/08/31 08:27:37;;;;;;;13.60;12.17;;;17.80;99.90;;;;;;5051648;28;20169;-67
2021/08/31 08:30:04;;;;;;;15.30;12.13;;;17.80;99.90;;;;;;5052349;28;20821;-68
2021/08/31 08:32:30;;;;;;;17.50;13.03;;;17.80;99.90;;;;;;5047378;28;20228;-71
2021/08/31 08:34:56;;;;;;;17.20;13.80;;;17.80;99.90;;;;;;5038541;28;20453;-69
2021/08/31 08:37:22;;;;;;;16.57;13.00;;;17.80;99.90;;;;;;5039882;28;20255;-74
2021/08/31 08:39:48;;;;;;;16.63;14.30;;;17.90;99.90;;;;;;5024294;28;20584;-68
2021/08/31 08:42:14;;;;;;;20.90;17.20;;;17.90;99.90;;;;;;5038945;28;20417;-68
2021/08/31 08:44:40;;;;;;;18.80;15.60;;;17.90;99.90;;;;;;5031149;28;20940;-68
2021/08/31 08:47:06;;;;;;;20.53;17.40;;;17.90;99.90;;;;;;5046871;28;20424;-68
2021/08/31 08:49:32;;;;;;;19.07;17.07;;;18.00;99.90;;;;;;5056606;28;20467;-68
2021/08/31 08:51:59;;;;;;;20.53;16.90;;;18.00;99.90;;;;;;5055559;28;20416;-70
2021/08/31 08:54:26;;;;;;;20.37;17.17;;;18.10;99.90;;;;;;5055493;28;20216;-74
2021/08/31 08:56:53;;;;;;;20.23;15.97;;;18.20;99.90;;;;;;5055940;28;20776;-68
2021/08/31 08:59:20;;;;;;;17.60;15.77;;;18.30;99.90;;;;;;5055881;28;20404;-69
2021/08/31 09:01:50;;;;;;;16.30;14.67;;;18.30;99.90;;;;;;5055126;28;20460;-68
2021/08/31 09:04:19;;;;;;;15.93;14.07;;;18.40;99.90;;;;;;5054110;28;20412;-68
2021/08/31 09:06:45;;;;;;;14.30;12.87;;;18.50;99.90;;;;;;5035017;28;20424;-68
2021/08/31 09:09:12;;;;;;;14.57;13.00;;;18.60;99.90;;;;;;5018383;28;20409;-68
2021/08/31 09:11:46;;;;;;;15.57;13.23;;;18.70;99.90;;;;;;5045760;28;20439;-68
2021/08/31 09:14:18;;;;;;;15.93;14.20;;;18.80;99.90;;;;;;5055853;28;20463;-68
2021/08/31 09:16:46;;;;;;;17.57;15.30;;;18.90;99.90;;;;;;5055551;28;20429;-70
2021/08/31 09:19:12;;;;;;;16.23;14.10;;;19.00;99.90;;;;;;5055731;28;20762;-68
2021/08/31 09:21:39;;;;;;;15.17;13.27;;;19.00;99.90;;;;;;5043473;28;20412;-68
2021/08/31 09:24:04;;;;;;;15.20;13.67;;;19.00;99.90;;;;;;5038640;28;20272;-68
2021/08/31 09:26:33;;;;;;;15.37;12.60;;;19.10;99.90;;;;;;5035217;28;20500;-68
2021/08/31 09:29:24;;;;;;;14.40;13.00;;;19.10;99.90;;;;;;5035961;28;20228;-68
2021/08/31 09:31:57;;;;;;;15.10;11.40;;;19.20;99.90;;;;;;5023910;28;20444;-67
2021/08/31 09:34:42;;;;;;;12.43;11.23;;;19.20;99.90;;;;;;5039548;28;20453;-74
2021/08/31 09:37:31;;;;;;;13.67;12.47;;;19.20;99.90;;;;;;5045801;28;20427;-68
2021/08/31 09:40:17;;;;;;;15.63;14.03;;;19.30;99.90;;;;;;5043378;28;20405;-68
2021/08/31 09:42:58;;;;;;;14.13;11.97;;;19.50;99.90;;;;;;5052710;28;20420;-67
2021/08/31 09:45:28;;;;;;;14.70;13.20;;;19.80;99.90;;;;;;5054591;28;20762;-68
2021/08/31 09:47:55;;;;;;;12.07;10.40;;;20.10;99.90;;;;;;5053900;28;20467;-68
2021/08/31 09:50:31;;;;;;;14.20;13.10;;;20.40;99.90;;;;;;5035250;28;20451;-67
2021/08/31 09:53:11;;;;;;;11.50;10.30;;;20.70;99.90;;;;;;5034979;28;20492;-68
2021/08/31 09:55:38;;;;;;;13.00;11.90;;;20.80;99.90;;;;;;5034438;28;20594;-68
2021/08/31 09:58:15;;;;;;;11.50;10.40;;;21.00;99.90;;;;;;5034461;28;20455;-67
2021/08/31 10:00:44;;;;;;;14.30;13.00;;;21.30;99.90;;;;;;5034694;28;20397;-67
2021/08/31 10:03:11;;;;;;;14.60;11.53;;;21.60;99.90;;;;;;5037678;28;20419;-68
2021/08/31 10:05:38;;;;;;;13.60;12.40;;;21.80;99.90;;;;;;5049611;28;20967;-68
2021/08/31 10:08:05;;;;;;;11.97;10.77;;;21.90;99.90;;;;;;5055072;28;20419;-65
2021/08/31 10:10:32;;;;;;;11.10;10.00;;;21.90;99.90;;;;;;5020179;28;20401;-65
2021/08/31 10:13:02;;;;;;;12.47;11.37;;;21.90;99.90;;;;;;5051307;28;20757;-65
2021/08/31 10:15:29;;;;;;;12.73;11.60;;;21.80;99.90;;;;;;5046684;28;20456;-67
2021/08/31 10:17:55;;;;;;;13.47;12.10;;;21.80;99.90;;;;;;5054719;28;20500;-66
2021/08/31 10:20:27;;;;;;;17.63;15.17;;;21.70;99.80;;;;;;5051696;28;20507;-65
2021/08/31 10:22:54;;;;;;;13.37;12.07;;;21.60;99.90;;;;;;5054659;28;20578;-65
2021/08/31 10:25:24;;;;;;;13.70;12.30;;;21.60;99.90;;;;;;5054387;28;20786;-66
2021/08/31 10:27:51;;;;;;;11.77;10.60;;;21.50;99.90;;;;;;5054161;28;20896;-65
2021/08/31 10:30:20;;;;;;;13.37;12.10;;;21.40;99.90;;;;;;5047405;28;20455;-66
2021/08/31 10:32:49;;;;;;;12.90;11.80;;;21.40;99.90;;;;;;5042824;28;20585;-66
2021/08/31 10:35:39;;;;;;;12.53;11.43;;;21.30;99.90;;;;;;5043102;28;20459;-65
2021/08/31 10:38:10;;;;;;;13.33;11.93;;;21.20;99.90;;;;;;5044209;28;20401;-66
2021/08/31 10:40:42;;;;;;;13.63;12.33;;;21.10;99.90;;;;;;5042208;28;20401;-65
2021/08/31 10:43:35;;;;;;;13.67;12.47;;;21.10;99.90;;;;;;5051183;28;20423;-65
2021/08/31 10:46:01;;;;;;;15.67;14.37;;;21.30;99.90;;;;;;5034164;28;20434;-65
2021/08/31 10:48:26;;;;;;;13.70;12.60;;;21.60;99.90;;;;;;5044766;28;20441;-66
2021/08/31 10:50:59;;;;;;;14.20;12.80;;;22.00;99.90;;;;;;5034273;28;20641;-65
2021/08/31 10:53:57;;;;;;;12.10;11.00;;;22.30;99.90;;;;;;5033475;28;20256;-66
2021/08/31 10:56:23;;;;;;;15.20;13.80;;;22.70;99.30;;;;;;4979839;28;20486;-65
2021/08/31 10:58:56;;;;;;;12.13;11.10;;;22.90;97.40;;;;;;5053714;28;20432;-65
2021/08/31 11:01:24;;;;;;;12.40;11.20;;;23.20;99.00;;;;;;5053750;28;20953;-67
2021/08/31 11:03:52;;;;;;;11.83;10.77;;;23.20;97.70;;;;;;5053995;28;20418;-65
2021/08/31 11:06:18;;;;;;;12.30;11.07;;;23.20;96.50;;;;;;5053937;28;20415;-65
2021/08/31 11:09:07;;;;;;;12.30;10.90;;;23.20;96.50;;;;;;5033342;28;21101;-66
2021/08/31 11:11:33;;;;;;;13.10;11.90;;;23.10;96.80;;;;;;5032477;28;20386;-65
2021/08/31 11:13:59;;;;;;;16.53;11.80;;;22.90;96.10;;;;;;5034033;28;20467;-65
2021/08/31 11:16:27;;;;;;;13.53;12.63;;;22.90;97.50;;;;;;5042721;28;20420;-67
2021/08/31 11:18:53;;;;;;;11.80;10.80;;;22.80;97.20;;;;;;5053775;28;20397;-65
2021/08/31 11:21:19;;;;;;;14.27;12.97;;;22.90;97.70;;;;;;5053907;28;20416;-68
2021/08/31 11:23:45;;;;;;;12.03;11.10;;;23.00;97.10;;;;;;5052987;28;20434;-65
2021/08/31 11:26:24;;;;;;;10.67;9.57;;;23.20;97.30;;;;;;5046937;28;20424;-65
2021/08/31 11:28:53;;;;;;;10.57;9.47;;;23.50;97.20;;;;;;5014711;28;20221;-66
2021/08/31 11:31:27;;;;;;;11.80;10.97;;;23.80;96.20;;;;;;5038311;28;21010;-66
2021/08/31 11:33:54;;;;;;;12.37;11.30;;;24.00;95.50;;;;;;5040884;28;20481;-66
2021/08/31 11:36:25;;;;;;;10.73;9.93;;;24.30;94.60;;;;;;5036689;28;20425;-66
2021/08/31 11:39:05;;;;;;;11.53;10.43;;;24.50;93.00;;;;;;5041305;28;20462;-67
2021/08/31 11:41:38;;;;;;;11.07;9.97;;;24.50;92.90;;;;;;5040485;28;20876;-68
2021/08/31 11:44:07;;;;;;;11.13;10.13;;;24.50;92.00;;;;;;5039781;28;20417;-68
2021/08/31 11:46:56;;;;;;;11.50;10.50;;;24.40;92.90;;;;;;5047848;28;20435;-68
2021/08/31 11:49:25;;;;;;;12.20;11.00;;;24.20;91.70;;;;;;5053063;28;20444;-68
2021/08/31 11:52:14;;;;;;;10.17;9.37;;;23.90;92.00;;;;;;5053069;28;20473;-68
2021/08/31 11:54:43;;;;;;;10.60;9.80;;;23.70;92.40;;;;;;5051989;28;20478;-68
2021/08/31 11:57:10;;;;;;;13.33;12.10;;;23.50;93.00;;;;;;5052749;28;20424;-67
2021/08/31 11:59:47;;;;;;;11.87;10.90;;;23.40;93.00;;;;;;5052234;28;20814;-67
2021/08/31 12:02:20;;;;;;;11.73;10.73;;;23.20;92.10;;;;;;5048487;28;20416;-68
2021/08/31 12:05:07;;;;;;;9.50;8.60;;;23.10;92.90;;;;;;5047663;28;20478;-68
2021/08/31 12:07:40;;;;;;;10.33;9.50;;;23.20;94.60;;;;;;5051716;28;20479;-68
2021/08/31 12:10:12;;;;;;;10.10;9.23;;;23.30;93.20;;;;;;5048819;28;20425;-68
2021/08/31 12:12:41;;;;;;;11.27;10.37;;;23.50;92.60;;;;;;5039678;28;20503;-68
2021/08/31 12:15:09;;;;;;;9.33;8.53;;;23.80;91.80;;;;;;5037131;28;20495;-68
2021/08/31 12:17:37;;;;;;;10.03;9.27;;;24.00;91.10;;;;;;5050823;28;20779;-69
2021/08/31 12:20:23;;;;;;;11.97;11.07;;;24.10;91.20;;;;;;5042105;28;20417;-68
2021/08/31 12:22:51;;;;;;;10.47;9.70;;;24.30;91.10;;;;;;5051544;28;20404;-68
2021/08/31 12:25:19;;;;;;;9.63;8.93;;;24.30;89.50;;;;;;5052190;28;20412;-68
2021/08/31 12:27:49;;;;;;;12.13;11.33;;;24.30;89.70;;;;;;5045838;28;20828;-65
2021/08/31 12:30:33;;;;;;;8.90;8.20;;;24.40;90.30;;;;;;5049579;28;20430;-65
2021/08/31 12:32:58;;;;;;;11.03;10.23;;;24.50;88.10;;;;;;5052572;28;20469;-65